sensor_id;sensor_type;location;lat;lon;timestamp;pressure;altitude;pressure_sealevel;temperature;humidity
76285;BME280;65096;50.998;7.098;2023-02-05T00:01:28;103061.34;;;6.28;61.45
76285;BME280;65096;50.998;7.098;2023-02-05T00:03:55;103057.13;;;6.29;61.22
76285;BME280;65096;50.998;7.098;2023-02-05T00:06:22;103055.47;;;6.29;61.36
76285;BME280;65096;50.998;7.098;2023-02-05T00:08:49;103044.31;;;6.29;61.51
76285;BME280;65096;50.998;7.098;2023-02-05T00:11:15;103042.53;;;6.28;61.77
76285;BME280;65096;50.998;7.098;2023-02-05T00:13:42;103035.72;;;6.28;61.82
76285;BME280;65096;50.998;7.098;2023-02-05T00:16:13;103022.91;;;6.28;62.08
76285;BME280;65096;50.998;7.098;2023-02-05T00:18:40;103020.19;;;6.25;61.93
76285;BME280;65096;50.998;7.098;2023-02-05T00:21:07;103014.06;;;6.23;62.11
76285;BME280;65096;50.998;7.098;2023-02-05T00:23:35;103012.78;;;6.17;62.22
76285;BME280;65096;50.998;7.098;2023-02-05T00:26:02;103010.56;;;6.21;62.27
76285;BME280;65096;50.998;7.098;2023-02-05T00:28:30;103011.31;;;6.20;62.23
76285;BME280;65096;50.998;7.098;2023-02-05T00:30:57;103008.00;;;6.21;62.58
76285;BME280;65096;50.998;7.098;2023-02-05T00:33:25;103010.56;;;6.21;62.58
76285;BME280;65096;50.998;7.098;2023-02-05T00:35:52;103010.56;;;6.21;62.62
76285;BME280;65096;50.998;7.098;2023-02-05T00:38:19;103001.00;;;6.19;62.25
76285;BME280;65096;50.998;7.098;2023-02-05T00:40:45;103006.38;;;6.23;62.80
76285;BME280;65096;50.998;7.098;2023-02-05T00:43:12;103003.72;;;6.22;62.63
76285;BME280;65096;50.998;7.098;2023-02-05T00:45:39;103005.53;;;6.23;62.46
76285;BME280;65096;50.998;7.098;2023-02-05T00:48:06;103001.16;;;6.22;62.67
76285;BME280;65096;50.998;7.098;2023-02-05T00:50:34;103003.66;;;6.20;62.58
76285;BME280;65096;50.998;7.098;2023-02-05T00:53:01;103004.53;;;6.21;62.61
76285;BME280;65096;50.998;7.098;2023-02-05T00:55:28;102998.34;;;6.17;63.12
76285;BME280;65096;50.998;7.098;2023-02-05T00:57:54;102987.88;;;6.14;63.22
76285;BME280;65096;50.998;7.098;2023-02-05T01:00:21;102985.31;;;6.14;63.20
76285;BME280;65096;50.998;7.098;2023-02-05T01:02:48;102979.38;;;6.15;63.36
76285;BME280;65096;50.998;7.098;2023-02-05T01:05:15;102967.47;;;6.16;63.54
76285;BME280;65096;50.998;7.098;2023-02-05T01:07:43;102955.97;;;6.09;63.55
76285;BME280;65096;50.998;7.098;2023-02-05T01:10:10;102968.28;;;6.15;63.46
76285;BME280;65096;50.998;7.098;2023-02-05T01:12:37;102955.72;;;6.05;63.63
76285;BME280;65096;50.998;7.098;2023-02-05T01:15:05;102973.19;;;6.12;63.47
76285;BME280;65096;50.998;7.098;2023-02-05T01:17:33;102978.53;;;6.15;63.60
76285;BME280;65096;50.998;7.098;2023-02-05T01:20:00;102971.53;;;6.12;63.46
76285;BME280;65096;50.998;7.098;2023-02-05T01:22:26;102974.97;;;6.13;63.88
76285;BME280;65096;50.998;7.098;2023-02-05T01:24:54;102957.47;;;6.06;63.56
76285;BME280;65096;50.998;7.098;2023-02-05T01:27:21;102959.53;;;6.11;63.94
76285;BME280;65096;50.998;7.098;2023-02-05T01:29:48;102959.53;;;6.11;64.23
76285;BME280;65096;50.998;7.098;2023-02-05T01:32:15;102959.53;;;6.11;63.66
76285;BME280;65096;50.998;7.098;2023-02-05T01:34:42;102954.41;;;6.11;64.00
76285;BME280;65096;50.998;7.098;2023-02-05T01:37:09;102931.22;;;5.95;63.76
76285;BME280;65096;50.998;7.098;2023-02-05T01:39:37;102948.19;;;6.08;64.29
76285;BME280;65096;50.998;7.098;2023-02-05T01:42:14;102934.41;;;6.06;64.47
76285;BME280;65096;50.998;7.098;2023-02-05T01:44:42;102943.78;;;6.05;64.09
76285;BME280;65096;50.998;7.098;2023-02-05T01:47:09;102943.78;;;6.05;63.93
76285;BME280;65096;50.998;7.098;2023-02-05T01:49:39;102949.88;;;6.07;64.29
76285;BME280;65096;50.998;7.098;2023-02-05T01:52:11;102955.88;;;6.08;63.82
76285;BME280;65096;50.998;7.098;2023-02-05T01:54:42;102961.50;;;6.02;64.62
76285;BME280;65096;50.998;7.098;2023-02-05T01:57:16;102958.34;;;6.06;64.86
76285;BME280;65096;50.998;7.098;2023-02-05T01:59:44;102952.88;;;6.00;64.54
76285;BME280;65096;50.998;7.098;2023-02-05T02:02:12;102958.00;;;6.00;64.61
76285;BME280;65096;50.998;7.098;2023-02-05T02:04:41;102964.78;;;6.00;64.46
76285;BME280;65096;50.998;7.098;2023-02-05T02:07:11;102953.81;;;6.02;64.36
76285;BME280;65096;50.998;7.098;2023-02-05T02:09:39;102950.41;;;6.02;64.71
76285;BME280;65096;50.998;7.098;2023-02-05T02:12:08;102945.28;;;6.02;64.57
76285;BME280;65096;50.998;7.098;2023-02-05T02:14:39;102934.94;;;6.00;65.52
76285;BME280;65096;50.998;7.098;2023-02-05T02:17:08;102922.75;;;5.96;65.28
76285;BME280;65096;50.998;7.098;2023-02-05T02:19:40;102904.31;;;5.74;66.47
76285;BME280;65096;50.998;7.098;2023-02-05T02:22:24;102915.09;;;5.15;69.41
76285;BME280;65096;50.998;7.098;2023-02-05T02:25:10;102914.63;;;5.08;67.42
76285;BME280;65096;50.998;7.098;2023-02-05T02:27:43;102933.38;;;5.34;67.33
76285;BME280;65096;50.998;7.098;2023-02-05T02:30:16;102923.78;;;5.45;67.63
76285;BME280;65096;50.998;7.098;2023-02-05T02:32:51;102919.19;;;5.39;68.52
76285;BME280;65096;50.998;7.098;2023-02-05T02:35:26;102930.06;;;5.22;69.00
76285;BME280;65096;50.998;7.098;2023-02-05T02:38:04;102929.66;;;5.16;69.24
76285;BME280;65096;50.998;7.098;2023-02-05T02:40:36;102949.72;;;5.23;68.07
76285;BME280;65096;50.998;7.098;2023-02-05T02:43:09;102949.91;;;5.26;68.35
76285;BME280;65096;50.998;7.098;2023-02-05T02:45:43;102943.03;;;5.25;68.08
76285;BME280;65096;50.998;7.098;2023-02-05T02:48:13;102955.41;;;5.32;67.18
76285;BME280;65096;50.998;7.098;2023-02-05T02:50:42;102949.28;;;5.43;67.04
76285;BME280;65096;50.998;7.098;2023-02-05T02:53:14;102943.78;;;5.50;66.68
76285;BME280;65096;50.998;7.098;2023-02-05T02:55:43;102932.63;;;5.50;66.54
76285;BME280;65096;50.998;7.098;2023-02-05T02:58:17;102940.19;;;5.61;66.15
76285;BME280;65096;50.998;7.098;2023-02-05T03:00:45;102942.25;;;5.67;66.04
76285;BME280;65096;50.998;7.098;2023-02-05T03:03:15;102946.41;;;5.65;66.61
76285;BME280;65096;50.998;7.098;2023-02-05T03:05:45;102933.59;;;5.65;66.39
76285;BME280;65096;50.998;7.098;2023-02-05T03:08:17;102931.03;;;5.65;66.29
76285;BME280;65096;50.998;7.098;2023-02-05T03:10:50;102947.19;;;5.64;66.57
76285;BME280;65096;50.998;7.098;2023-02-05T03:13:20;102944.63;;;5.64;66.12
76285;BME280;65096;50.998;7.098;2023-02-05T03:15:47;102941.66;;;5.58;66.18
76285;BME280;65096;50.998;7.098;2023-02-05T03:18:15;102941.75;;;5.59;66.58
76285;BME280;65096;50.998;7.098;2023-02-05T03:20:45;102936.66;;;5.59;66.44
76285;BME280;65096;50.998;7.098;2023-02-05T03:23:12;102933.22;;;5.59;66.43
76285;BME280;65096;50.998;7.098;2023-02-05T03:25:39;102936.75;;;5.61;66.36
76285;BME280;65096;50.998;7.098;2023-02-05T03:28:05;102929.38;;;5.65;66.25
76285;BME280;65096;50.998;7.098;2023-02-05T03:30:39;102929.56;;;5.68;66.78
76285;BME280;65096;50.998;7.098;2023-02-05T03:33:19;102929.56;;;5.68;66.30
76285;BME280;65096;50.998;7.098;2023-02-05T03:35:56;102912.41;;;5.67;66.83
76285;BME280;65096;50.998;7.098;2023-02-05T03:38:37;102908.91;;;5.65;66.72
76285;BME280;65096;50.998;7.098;2023-02-05T03:41:13;102900.31;;;5.65;66.80
76285;BME280;65096;50.998;7.098;2023-02-05T03:43:48;102901.22;;;5.65;66.58
76285;BME280;65096;50.998;7.098;2023-02-05T03:46:24;102888.47;;;5.52;66.30
76285;BME280;65096;50.998;7.098;2023-02-05T03:49:05;102900.41;;;5.66;66.86
76285;BME280;65096;50.998;7.098;2023-02-05T03:51:39;102894.31;;;5.64;66.68
76285;BME280;65096;50.998;7.098;2023-02-05T03:54:15;102898.66;;;5.65;66.66
76285;BME280;65096;50.998;7.098;2023-02-05T03:56:51;102893.63;;;5.67;66.87
76285;BME280;65096;50.998;7.098;2023-02-05T03:59:19;102899.53;;;5.66;66.55
76285;BME280;65096;50.998;7.098;2023-02-05T04:01:49;102899.53;;;5.66;66.65
76285;BME280;65096;50.998;7.098;2023-02-05T04:04:16;102901.13;;;5.64;66.48
76285;BME280;65096;50.998;7.098;2023-02-05T04:06:51;102905.66;;;5.55;67.53
76285;BME280;65096;50.998;7.098;2023-02-05T04:09:18;102880.09;;;5.42;67.16
76285;BME280;65096;50.998;7.098;2023-02-05T04:11:45;102900.09;;;5.47;67.33
76285;BME280;65096;50.998;7.098;2023-02-05T04:14:11;102904.31;;;5.47;67.51
76285;BME280;65096;50.998;7.098;2023-02-05T04:16:38;102900.88;;;5.46;67.25
76285;BME280;65096;50.998;7.098;2023-02-05T04:19:06;102909.53;;;5.48;67.27
76285;BME280;65096;50.998;7.098;2023-02-05T04:21:33;102910.41;;;5.49;67.68
76285;BME280;65096;50.998;7.098;2023-02-05T04:23:59;102905.28;;;5.49;67.12
76285;BME280;65096;50.998;7.098;2023-02-05T04:26:26;102891.50;;;5.47;67.40
76285;BME280;65096;50.998;7.098;2023-02-05T04:28:52;102894.16;;;5.48;67.57
76285;BME280;65096;50.998;7.098;2023-02-05T04:31:19;102882.38;;;5.37;67.44
76285;BME280;65096;50.998;7.098;2023-02-05T04:33:46;102901.75;;;5.47;67.36
76285;BME280;65096;50.998;7.098;2023-02-05T04:36:14;102906.69;;;5.44;67.58
76285;BME280;65096;50.998;7.098;2023-02-05T04:38:40;102916.34;;;5.48;67.33
76285;BME280;65096;50.998;7.098;2023-02-05T04:41:07;102897.94;;;5.40;67.36
76285;BME280;65096;50.998;7.098;2023-02-05T04:43:34;102910.22;;;5.46;67.19
76285;BME280;65096;50.998;7.098;2023-02-05T04:46:04;102922.09;;;5.58;67.27
76285;BME280;65096;50.998;7.098;2023-02-05T04:48:31;102914.31;;;5.57;67.13
76285;BME280;65096;50.998;7.098;2023-02-05T04:50:57;102911.31;;;5.49;67.16
76285;BME280;65096;50.998;7.098;2023-02-05T04:53:25;102906.88;;;5.47;68.00
76285;BME280;65096;50.998;7.098;2023-02-05T04:55:52;102909.34;;;5.45;68.91
76285;BME280;65096;50.998;7.098;2023-02-05T04:58:29;102918.28;;;5.39;67.52
76285;BME280;65096;50.998;7.098;2023-02-05T05:00:55;102910.72;;;5.40;67.60
76285;BME280;65096;50.998;7.098;2023-02-05T05:03:22;102910.81;;;5.42;67.76
76285;BME280;65096;50.998;7.098;2023-02-05T05:05:48;102909.34;;;5.45;67.44
76285;BME280;65096;50.998;7.098;2023-02-05T05:08:16;102910.13;;;5.44;67.68
76285;BME280;65096;50.998;7.098;2023-02-05T05:10:45;102882.13;;;5.33;67.80
76285;BME280;65096;50.998;7.098;2023-02-05T05:13:12;102911.81;;;5.44;67.76
76285;BME280;65096;50.998;7.098;2023-02-05T05:15:38;102916.25;;;5.46;67.42
76285;BME280;65096;50.998;7.098;2023-02-05T05:18:05;102918.00;;;5.47;67.63
76285;BME280;65096;50.998;7.098;2023-02-05T05:20:32;102923.69;;;5.43;68.30
76285;BME280;65096;50.998;7.098;2023-02-05T05:22:59;102916.72;;;5.41;68.24
76285;BME280;65096;50.998;7.098;2023-02-05T05:25:25;102925.78;;;5.36;68.95
76285;BME280;65096;50.998;7.098;2023-02-05T05:27:54;102922.34;;;5.35;68.16
76285;BME280;65096;50.998;7.098;2023-02-05T05:30:20;102910.53;;;5.37;68.06
76285;BME280;65096;50.998;7.098;2023-02-05T05:32:47;102902.09;;;5.38;67.95
76285;BME280;65096;50.998;7.098;2023-02-05T05:35:14;102909.16;;;5.42;68.52
76285;BME280;65096;50.998;7.098;2023-02-05T05:37:40;102909.06;;;5.41;68.48
76285;BME280;65096;50.998;7.098;2023-02-05T05:40:09;102903.22;;;5.43;68.44
76285;BME280;65096;50.998;7.098;2023-02-05T05:42:56;102904.22;;;5.45;68.40
76285;BME280;65096;50.998;7.098;2023-02-05T05:45:40;102889.56;;;5.43;68.76
76285;BME280;65096;50.998;7.098;2023-02-05T05:48:07;102885.66;;;5.35;68.79
76285;BME280;65096;50.998;7.098;2023-02-05T05:50:33;102887.94;;;5.30;68.62
76285;BME280;65096;50.998;7.098;2023-02-05T05:53:00;102895.78;;;5.33;69.04
76285;BME280;65096;50.998;7.098;2023-02-05T05:55:27;102889.38;;;5.40;68.82
76285;BME280;65096;50.998;7.098;2023-02-05T05:57:53;102891.25;;;5.42;68.46
76285;BME280;65096;50.998;7.098;2023-02-05T06:00:22;102884.63;;;5.46;68.39
76285;BME280;65096;50.998;7.098;2023-02-05T06:02:48;102880.50;;;5.48;68.42
76285;BME280;65096;50.998;7.098;2023-02-05T06:05:15;102890.03;;;5.50;68.21
76285;BME280;65096;50.998;7.098;2023-02-05T06:07:42;102885.00;;;5.52;68.37
76285;BME280;65096;50.998;7.098;2023-02-05T06:10:09;102879.88;;;5.52;68.88
76285;BME280;65096;50.998;7.098;2023-02-05T06:12:35;102880.50;;;5.48;68.57
76285;BME280;65096;50.998;7.098;2023-02-05T06:15:02;102876.25;;;5.48;68.43
76285;BME280;65096;50.998;7.098;2023-02-05T06:17:31;102878.13;;;5.51;68.57
76285;BME280;65096;50.998;7.098;2023-02-05T06:19:57;102886.41;;;5.47;68.78
76285;BME280;65096;50.998;7.098;2023-02-05T06:22:24;102880.69;;;5.51;68.38
76285;BME280;65096;50.998;7.098;2023-02-05T06:24:51;102883.56;;;5.42;69.18
76285;BME280;65096;50.998;7.098;2023-02-05T06:27:17;102881.38;;;5.48;69.00
76285;BME280;65096;50.998;7.098;2023-02-05T06:29:44;102884.47;;;5.43;68.75
76285;BME280;65096;50.998;7.098;2023-02-05T06:32:11;102884.56;;;5.44;69.35
76285;BME280;65096;50.998;7.098;2023-02-05T06:34:39;102885.31;;;5.43;68.89
76285;BME280;65096;50.998;7.098;2023-02-05T06:37:05;102876.06;;;5.45;68.92
76285;BME280;65096;50.998;7.098;2023-02-05T06:39:32;102875.69;;;5.39;68.97
76285;BME280;65096;50.998;7.098;2023-02-05T06:41:59;102881.63;;;5.38;69.11
76285;BME280;65096;50.998;7.098;2023-02-05T06:44:26;102885.94;;;5.39;68.81
76285;BME280;65096;50.998;7.098;2023-02-05T06:46:52;102878.44;;;5.42;69.32
76285;BME280;65096;50.998;7.098;2023-02-05T06:49:19;102879.16;;;5.40;69.42
76285;BME280;65096;50.998;7.098;2023-02-05T06:51:47;102839.91;;;5.26;69.03
76285;BME280;65096;50.998;7.098;2023-02-05T06:54:14;102870.19;;;5.46;69.01
76285;BME280;65096;50.998;7.098;2023-02-05T06:56:40;102871.94;;;5.47;69.14
76285;BME280;65096;50.998;7.098;2023-02-05T06:59:07;102860.03;;;5.48;68.78
76285;BME280;65096;50.998;7.098;2023-02-05T07:01:34;102857.97;;;5.42;68.97
76285;BME280;65096;50.998;7.098;2023-02-05T07:04:01;102866.03;;;5.48;69.02
76285;BME280;65096;50.998;7.098;2023-02-05T07:06:27;102865.34;;;5.51;69.07
76285;BME280;65096;50.998;7.098;2023-02-05T07:08:55;102865.44;;;5.52;69.09
76285;BME280;65096;50.998;7.098;2023-02-05T07:11:24;102864.53;;;5.52;68.89
76285;BME280;65096;50.998;7.098;2023-02-05T07:13:51;102860.31;;;5.52;69.22
76285;BME280;65096;50.998;7.098;2023-02-05T07:16:17;102858.53;;;5.51;69.03
76285;BME280;65096;50.998;7.098;2023-02-05T07:18:44;102856.78;;;5.50;69.29
76285;BME280;65096;50.998;7.098;2023-02-05T07:21:14;102854.38;;;5.53;69.15
76285;BME280;65096;50.998;7.098;2023-02-05T07:23:42;102854.38;;;5.53;69.48
76285;BME280;65096;50.998;7.098;2023-02-05T07:26:11;102832.03;;;5.36;69.64
76285;BME280;65096;50.998;7.098;2023-02-05T07:28:39;102857.84;;;5.54;69.26
76285;BME280;65096;50.998;7.098;2023-02-05T07:31:08;102856.19;;;5.54;69.18
76285;BME280;65096;50.998;7.098;2023-02-05T07:33:35;102857.03;;;5.55;69.20
76285;BME280;65096;50.998;7.098;2023-02-05T07:36:03;102853.72;;;5.56;69.41
76285;BME280;65096;50.998;7.098;2023-02-05T07:38:30;102849.38;;;5.55;69.59
76285;BME280;65096;50.998;7.098;2023-02-05T07:40:57;102853.41;;;5.51;69.89
76285;BME280;65096;50.998;7.098;2023-02-05T07:43:25;102848.50;;;5.54;69.82
76285;BME280;65096;50.998;7.098;2023-02-05T07:45:56;102847.78;;;5.57;70.13
76285;BME280;65096;50.998;7.098;2023-02-05T07:48:22;102846.91;;;5.56;69.67
76285;BME280;65096;50.998;7.098;2023-02-05T07:50:49;102846.97;;;5.58;69.68
76285;BME280;65096;50.998;7.098;2023-02-05T07:53:16;102839.84;;;5.52;69.64
76285;BME280;65096;50.998;7.098;2023-02-05T07:55:43;102840.91;;;5.56;69.82
76285;BME280;65096;50.998;7.098;2023-02-05T07:58:10;102843.56;;;5.57;69.80
76285;BME280;65096;50.998;7.098;2023-02-05T08:00:38;102841.59;;;5.53;70.28
76285;BME280;65096;50.998;7.098;2023-02-05T08:03:05;102840.63;;;5.51;71.11
76285;BME280;65096;50.998;7.098;2023-02-05T08:05:35;102800.16;;;5.31;71.10
76285;BME280;65096;50.998;7.098;2023-02-05T08:08:04;102846.25;;;5.46;72.54
76285;BME280;65096;50.998;7.098;2023-02-05T08:10:31;102848.72;;;5.44;71.49
76285;BME280;65096;50.998;7.098;2023-02-05T08:12:58;102835.56;;;5.38;72.15
76285;BME280;65096;50.998;7.098;2023-02-05T08:15:25;102839.25;;;5.43;71.19
76285;BME280;65096;50.998;7.098;2023-02-05T08:17:53;102841.25;;;5.47;71.74
76285;BME280;65096;50.998;7.098;2023-02-05T08:20:20;102839.34;;;5.45;71.86
76285;BME280;65096;50.998;7.098;2023-02-05T08:22:47;102844.09;;;5.39;72.29
76285;BME280;65096;50.998;7.098;2023-02-05T08:25:14;102836.78;;;5.45;71.81
76285;BME280;65096;50.998;7.098;2023-02-05T08:27:41;102837.31;;;5.39;71.77
76285;BME280;65096;50.998;7.098;2023-02-05T08:30:12;102832.38;;;5.42;72.05
76285;BME280;65096;50.998;7.098;2023-02-05T08:32:39;102845.38;;;5.45;71.93
76285;BME280;65096;50.998;7.098;2023-02-05T08:35:07;102840.88;;;5.41;72.75
76285;BME280;65096;50.998;7.098;2023-02-05T08:37:34;102843.34;;;5.40;72.27
76285;BME280;65096;50.998;7.098;2023-02-05T08:40:01;102846.66;;;5.39;72.64
76285;BME280;65096;50.998;7.098;2023-02-05T08:42:28;102842.25;;;5.36;72.36
76285;BME280;65096;50.998;7.098;2023-02-05T08:44:54;102847.56;;;5.39;72.58
76285;BME280;65096;50.998;7.098;2023-02-05T08:47:23;102836.53;;;5.40;72.13
76285;BME280;65096;50.998;7.098;2023-02-05T08:49:49;102825.34;;;5.38;72.91
76285;BME280;65096;50.998;7.098;2023-02-05T08:52:17;102821.44;;;5.45;72.15
76285;BME280;65096;50.998;7.098;2023-02-05T08:54:44;102814.56;;;5.44;72.56
76285;BME280;65096;50.998;7.098;2023-02-05T08:57:12;102818.03;;;5.44;72.28
76285;BME280;65096;50.998;7.098;2023-02-05T08:59:40;102783.25;;;5.33;72.58
76285;BME280;65096;50.998;7.098;2023-02-05T09:02:13;102780.19;;;5.26;72.48
76285;BME280;65096;50.998;7.098;2023-02-05T09:04:41;102815.75;;;5.49;71.96
76285;BME280;65096;50.998;7.098;2023-02-05T09:07:08;102813.13;;;5.34;73.32
76285;BME280;65096;50.998;7.098;2023-02-05T09:09:36;102816.59;;;5.35;73.19
76285;BME280;65096;50.998;7.098;2023-02-05T09:12:03;102809.53;;;5.18;73.96
76285;BME280;65096;50.998;7.098;2023-02-05T09:14:29;102806.97;;;5.18;73.84
76285;BME280;65096;50.998;7.098;2023-02-05T09:17:00;102811.59;;;5.23;73.30
76285;BME280;65096;50.998;7.098;2023-02-05T09:19:27;102827.59;;;5.06;74.58
76285;BME280;65096;50.998;7.098;2023-02-05T09:21:55;102823.78;;;5.00;74.72
76285;BME280;65096;50.998;7.098;2023-02-05T09:24:21;102834.00;;;5.00;75.33
76285;BME280;65096;50.998;7.098;2023-02-05T09:26:50;102831.44;;;5.00;74.93
76285;BME280;65096;50.998;7.098;2023-02-05T09:29:16;102825.47;;;4.73;75.18
76285;BME280;65096;50.998;7.098;2023-02-05T09:31:43;102833.63;;;4.80;74.57
76285;BME280;65096;50.998;7.098;2023-02-05T09:34:10;102835.97;;;4.90;74.53
76285;BME280;65096;50.998;7.098;2023-02-05T09:36:36;102851.34;;;4.64;74.97
76285;BME280;65096;50.998;7.098;2023-02-05T09:39:04;102861.75;;;4.67;74.75
76285;BME280;65096;50.998;7.098;2023-02-05T09:41:34;102864.41;;;4.69;75.01
76285;BME280;65096;50.998;7.098;2023-02-05T09:44:11;102867.06;;;4.70;75.16
76285;BME280;65096;50.998;7.098;2023-02-05T09:46:45;102877.84;;;4.79;74.62
76285;BME280;65096;50.998;7.098;2023-02-05T09:49:16;102872.75;;;4.66;73.98
76285;BME280;65096;50.998;7.098;2023-02-05T09:51:47;102874.53;;;4.67;73.89
76285;BME280;65096;50.998;7.098;2023-02-05T09:54:17;102880.22;;;4.76;73.39
76285;BME280;65096;50.998;7.098;2023-02-05T09:56:47;102880.78;;;4.85;73.80
76285;BME280;65096;50.998;7.098;2023-02-05T09:59:18;102878.75;;;4.80;73.86
76285;BME280;65096;50.998;7.098;2023-02-05T10:01:48;102881.31;;;4.80;74.07
76285;BME280;65096;50.998;7.098;2023-02-05T10:04:16;102879.22;;;4.74;73.94
76285;BME280;65096;50.998;7.098;2023-02-05T10:10:09;102876.00;;;4.64;75.04
76285;BME280;65096;50.998;7.098;2023-02-05T10:15:46;102896.81;;;4.70;74.48
76285;BME280;65096;50.998;7.098;2023-02-05T10:18:23;102885.63;;;4.81;74.32
76285;BME280;65096;50.998;7.098;2023-02-05T10:21:00;102881.19;;;4.65;74.54
76285;BME280;65096;50.998;7.098;2023-02-05T10:23:48;102875.00;;;4.75;74.49
76285;BME280;65096;50.998;7.098;2023-02-05T10:26:17;102877.09;;;4.67;74.35
76285;BME280;65096;50.998;7.098;2023-02-05T10:29:13;102880.13;;;4.75;74.24
76285;BME280;65096;50.998;7.098;2023-02-05T10:31:51;102884.56;;;4.64;73.78
76285;BME280;65096;50.998;7.098;2023-02-05T10:34:37;102890.72;;;4.68;75.10
76285;BME280;65096;50.998;7.098;2023-02-05T10:37:14;102881.41;;;4.68;74.84
76285;BME280;65096;50.998;7.098;2023-02-05T10:39:43;102888.16;;;4.81;73.98
76285;BME280;65096;50.998;7.098;2023-02-05T10:42:22;102889.44;;;4.74;74.21
76285;BME280;65096;50.998;7.098;2023-02-05T10:44:55;102889.44;;;4.87;73.94
76285;BME280;65096;50.998;7.098;2023-02-05T10:47:49;102883.06;;;4.94;73.75
76285;BME280;65096;50.998;7.098;2023-02-05T10:50:23;102889.16;;;4.96;74.08
76285;BME280;65096;50.998;7.098;2023-02-05T10:52:52;102884.44;;;4.89;74.19
76285;BME280;65096;50.998;7.098;2023-02-05T10:55:18;102886.03;;;4.87;73.58
76285;BME280;65096;50.998;7.098;2023-02-05T10:57:45;102886.03;;;4.87;73.40
76285;BME280;65096;50.998;7.098;2023-02-05T11:00:15;102887.59;;;4.98;74.10
76285;BME280;65096;50.998;7.098;2023-02-05T11:02:47;102885.31;;;4.89;73.84
76285;BME280;65096;50.998;7.098;2023-02-05T11:05:19;102888.97;;;4.93;73.77
76285;BME280;65096;50.998;7.098;2023-02-05T11:07:49;102880.69;;;4.97;73.72
76285;BME280;65096;50.998;7.098;2023-02-05T11:10:18;102882.38;;;4.97;73.87
76285;BME280;65096;50.998;7.098;2023-02-05T11:12:48;102888.06;;;5.06;73.60
76285;BME280;65096;50.998;7.098;2023-02-05T11:15:21;102874.19;;;5.02;73.60
76285;BME280;65096;50.998;7.098;2023-02-05T11:17:54;102881.59;;;4.98;74.10
76285;BME280;65096;50.998;7.098;2023-02-05T11:20:26;102876.84;;;4.90;73.79
76285;BME280;65096;50.998;7.098;2023-02-05T11:23:11;102880.13;;;5.01;74.01
76285;BME280;65096;50.998;7.098;2023-02-05T11:25:48;102873.13;;;4.99;73.45
76285;BME280;65096;50.998;7.098;2023-02-05T11:28:19;102877.47;;;5.00;74.01
76285;BME280;65096;50.998;7.098;2023-02-05T11:30:47;102872.34;;;5.00;73.50
76285;BME280;65096;50.998;7.098;2023-02-05T11:33:30;102871.34;;;4.98;73.93
76285;BME280;65096;50.998;7.098;2023-02-05T11:36:00;102865.16;;;4.94;74.26
76285;BME280;65096;50.998;7.098;2023-02-05T11:38:41;102858.47;;;4.96;74.47
76285;BME280;65096;50.998;7.098;2023-02-05T11:41:10;102859.31;;;5.10;73.98
76285;BME280;65096;50.998;7.098;2023-02-05T11:43:39;102857.56;;;5.09;74.30
76285;BME280;65096;50.998;7.098;2023-02-05T11:46:08;102854.91;;;5.07;73.86
76285;BME280;65096;50.998;7.098;2023-02-05T11:48:42;102861.31;;;5.01;74.18
76285;BME280;65096;50.998;7.098;2023-02-05T11:51:12;102848.44;;;5.12;73.78
76285;BME280;65096;50.998;7.098;2023-02-05T11:53:49;102858.22;;;5.19;73.79
76285;BME280;65096;50.998;7.098;2023-02-05T11:56:19;102849.50;;;5.16;74.42
76285;BME280;65096;50.998;7.098;2023-02-05T11:58:57;102852.06;;;5.16;73.46
76285;BME280;65096;50.998;7.098;2023-02-05T12:01:25;102854.13;;;5.08;73.69
76285;BME280;65096;50.998;7.098;2023-02-05T12:03:59;102855.13;;;4.97;74.34
76285;BME280;65096;50.998;7.098;2023-02-05T12:06:31;102848.34;;;5.11;74.00
76285;BME280;65096;50.998;7.098;2023-02-05T12:08:59;102856.50;;;4.92;74.18
76285;BME280;65096;50.998;7.098;2023-02-05T12:11:39;102862.22;;;4.88;74.79
76285;BME280;65096;50.998;7.098;2023-02-05T12:14:42;102853.38;;;4.96;74.50
76285;BME280;65096;50.998;7.098;2023-02-05T12:17:32;102863.41;;;4.93;74.60
76285;BME280;65096;50.998;7.098;2023-02-05T12:20:14;102853.94;;;4.92;74.74
76285;BME280;65096;50.998;7.098;2023-02-05T12:23:25;102860.47;;;4.87;74.96
76285;BME280;65096;50.998;7.098;2023-02-05T12:26:09;102847.97;;;4.92;74.96
76285;BME280;65096;50.998;7.098;2023-02-05T12:28:50;102854.66;;;4.89;75.11
76285;BME280;65096;50.998;7.098;2023-02-05T12:31:30;102846.50;;;4.95;74.46
76285;BME280;65096;50.998;7.098;2023-02-05T12:34:11;102845.09;;;5.00;74.17
76285;BME280;65096;50.998;7.098;2023-02-05T12:36:51;102852.97;;;5.03;74.25
76285;BME280;65096;50.998;7.098;2023-02-05T12:39:36;102850.72;;;4.95;74.81
76285;BME280;65096;50.998;7.098;2023-02-05T12:42:14;102843.44;;;5.01;74.33
76285;BME280;65096;50.998;7.098;2023-02-05T12:45:02;102842.16;;;4.94;75.21
76285;BME280;65096;50.998;7.098;2023-02-05T12:47:41;102850.91;;;4.98;74.76
76285;BME280;65096;50.998;7.098;2023-02-05T12:50:31;102851.28;;;5.04;74.41
76285;BME280;65096;50.998;7.098;2023-02-05T12:53:14;102842.34;;;4.97;74.80
76285;BME280;65096;50.998;7.098;2023-02-05T12:55:55;102837.56;;;4.88;74.38
76285;BME280;65096;50.998;7.098;2023-02-05T12:58:33;102850.81;;;4.96;74.79
76285;BME280;65096;50.998;7.098;2023-02-05T13:01:05;102846.09;;;4.89;74.90
76285;BME280;65096;50.998;7.098;2023-02-05T13:03:36;102845.88;;;4.99;74.39
76285;BME280;65096;50.998;7.098;2023-02-05T13:06:09;102845.50;;;4.93;75.30
76285;BME280;65096;50.998;7.098;2023-02-05T13:08:42;102839.78;;;4.97;74.78
76285;BME280;65096;50.998;7.098;2023-02-05T13:11:15;102845.88;;;4.99;74.87
76285;BME280;65096;50.998;7.098;2023-02-05T13:13:49;102844.41;;;5.03;74.42
76285;BME280;65096;50.998;7.098;2023-02-05T13:16:18;102838.50;;;4.90;74.78
76285;BME280;65096;50.998;7.098;2023-02-05T13:19:00;102842.06;;;4.92;74.31
76285;BME280;65096;50.998;7.098;2023-02-05T13:21:28;102847.69;;;4.87;74.88
76285;BME280;65096;50.998;7.098;2023-02-05T13:24:24;102831.19;;;4.69;75.70